Time;durP1;ratioP1;P1;durP2;ratioP2;P2;SDS_P1;SDS_P2;PMS_P1;PMS_P2;Temp;Humidity;BMP_temperature;BMP_pressure;BME280_temperature;BME280_humidity;BME280_pressure;Samples;Min_cycle;Max_cycle;Signal;HPM_P1;HPM_P2
2023/12/25 00:01:46;;;;;;;;;;;;;;;16.96;44.06;100416.47;5078293;28;1031;-55
2023/12/25 00:04:12;;;;;;;;;;;;;;;18.18;42.38;100417.59;5077556;28;1102;-53
2023/12/25 00:06:37;;;;;;;;;;;;;;;17.20;44.14;100419.31;5077609;28;1070;-54
2023/12/25 00:09:03;;;;;;;;;;;;;;;18.23;42.34;100421.09;5077586;28;1055;-54
2023/12/25 00:11:28;;;;;;;;;;;;;;;18.34;41.91;100423.72;5077386;28;2229;-55
2023/12/25 00:13:55;;;;;;;;;;;;;;;17.40;43.44;100425.75;5059877;28;1175;-54
2023/12/25 00:16:21;;;;;;;;;;;;;;;17.65;43.54;100421.13;5069364;28;1115;-54
2023/12/25 00:18:46;;;;;;;;;;;;;;;17.87;42.75;100423.41;5054733;28;1254;-54
2023/12/25 00:21:12;;;;;;;;;;;;;;;17.21;43.89;100417.41;5074919;28;1130;-52
2023/12/25 00:23:37;;;;;;;;;;;;;;;17.90;42.86;100428.31;5072478;28;1148;-55
2023/12/25 00:26:03;;;;;;;;;;;;;;;17.52;43.35;100425.38;5077704;28;1064;-54
2023/12/25 00:28:29;;;;;;;;;;;;;;;18.38;41.83;100422.81;5077362;28;1060;-53
2023/12/25 00:30:55;;;;;;;;;;;;;;;18.81;40.63;100417.28;5059417;28;1914;-55
2023/12/25 00:33:20;;;;;;;;;;;;;;;17.65;42.95;100430.19;5057654;28;1216;-54
2023/12/25 00:35:46;;;;;;;;;;;;;;;17.29;43.42;100427.75;5077633;28;1142;-55
2023/12/25 00:38:11;;;;;;;;;;;;;;;18.26;42.06;100425.19;5063945;28;1046;-55
2023/12/25 00:40:37;;;;;;;;;;;;;;;17.79;43.03;100436.69;5039355;28;1377;-55
2023/12/25 00:43:03;;;;;;;;;;;;;;;17.28;43.58;100435.19;5070591;28;1080;-52
2023/12/25 00:45:29;;;;;;;;;;;;;;;18.67;41.25;100432.94;5047061;28;1060;-54
2023/12/25 00:47:54;;;;;;;;;;;;;;;17.48;43.56;100427.88;5062256;28;1182;-55
2023/12/25 00:50:20;;;;;;;;;;;;;;;17.58;43.38;100432.47;5064880;28;1914;-54
2023/12/25 00:52:47;;;;;;;;;;;;;;;17.87;42.63;100443.47;5042255;28;1110;-53
2023/12/25 00:55:12;;;;;;;;;;;;;;;17.19;43.62;100434.13;5076297;28;1043;-54
2023/12/25 00:57:38;;;;;;;;;;;;;;;17.06;43.63;100437.53;5046653;28;1226;-53
2023/12/25 01:00:04;;;;;;;;;;;;;;;18.22;42.27;100426.91;5056954;28;1151;-51
2023/12/25 01:02:30;;;;;;;;;;;;;;;17.29;43.71;100425.00;5071255;28;1048;-52
2023/12/25 01:04:55;;;;;;;;;;;;;;;16.91;43.90;100419.22;5076903;28;1145;-53
2023/12/25 01:07:21;;;;;;;;;;;;;;;18.32;41.88;100414.94;5063194;28;1224;-54
2023/12/25 01:09:47;;;;;;;;;;;;;;;17.19;44.14;100408.59;5068860;28;1050;-53
2023/12/25 01:12:13;;;;;;;;;;;;;;;16.90;44.04;100404.69;5071363;28;1917;-54
2023/12/25 01:14:43;;;;;;;;;;;;;;;18.08;42.26;100402.00;5068936;28;1193;-53
2023/12/25 01:17:10;;;;;;;;;;;;;;;17.14;44.10;100405.88;5053904;28;1214;-54
2023/12/25 01:19:35;;;;;;;;;;;;;;;18.69;40.90;100389.41;5076542;28;1153;-53
2023/12/25 01:22:01;;;;;;;;;;;;;;;17.97;42.47;100386.75;5072566;28;1119;-54
2023/12/25 01:24:26;;;;;;;;;;;;;;;17.30;43.74;100393.66;5057954;28;1088;-53
2023/12/25 01:26:52;;;;;;;;;;;;;;;17.56;43.41;100386.03;5063207;28;1142;-54
2023/12/25 01:29:17;;;;;;;;;;;;;;;17.61;43.23;100390.63;5068480;28;1100;-54
2023/12/25 01:31:43;;;;;;;;;;;;;;;17.20;43.56;100396.50;5071610;28;1981;-54
2023/12/25 01:34:09;;;;;;;;;;;;;;;18.07;42.47;100390.16;5052056;28;1108;-53
2023/12/25 01:36:38;;;;;;;;;;;;;;;17.73;43.01;100384.75;5070988;28;1031;-54
2023/12/25 01:39:04;;;;;;;;;;;;;;;17.20;43.62;100383.59;5068362;28;995;-54
2023/12/25 01:41:29;;;;;;;;;;;;;;;17.82;42.85;100379.44;5057848;28;1080;-54
2023/12/25 01:43:55;;;;;;;;;;;;;;;17.64;43.22;100375.50;5076211;28;1501;-53
2023/12/25 01:46:20;;;;;;;;;;;;;;;17.15;43.68;100369.06;5051265;28;1083;-53
2023/12/25 01:48:47;;;;;;;;;;;;;;;17.56;43.23;100368.72;5064389;28;1175;-54
2023/12/25 01:51:13;;;;;;;;;;;;;;;17.69;43.09;100373.50;5062745;28;1905;-55
2023/12/25 01:53:38;;;;;;;;;;;;;;;17.18;44.07;100363.00;5068407;28;1080;-53
2023/12/25 01:56:04;;;;;;;;;;;;;;;18.84;40.66;100362.75;5069669;28;1110;-55
2023/12/25 01:58:30;;;;;;;;;;;;;;;17.58;43.27;100363.72;5039018;28;1392;-54
2023/12/25 02:00:55;;;;;;;;;;;;;;;17.16;43.72;100359.72;5070910;28;1095;-54
2023/12/25 02:03:21;;;;;;;;;;;;;;;17.67;43.28;100345.50;5078271;28;1020;-54
2023/12/25 02:05:46;;;;;;;;;;;;;;;17.35;43.67;100357.91;5049253;28;1159;-53
2023/12/25 02:08:14;;;;;;;;;;;;;;;17.81;43.16;100358.53;5080291;28;1104;-53
2023/12/25 02:10:40;;;;;;;;;;;;;;;18.53;41.04;100352.19;5048828;28;1971;-55
2023/12/25 02:13:05;;;;;;;;;;;;;;;17.47;43.40;100360.25;5080259;28;1067;-53
2023/12/25 02:15:31;;;;;;;;;;;;;;;17.14;43.64;100351.78;5080076;28;1039;-54
2023/12/25 02:17:57;;;;;;;;;;;;;;;18.27;42.10;100358.84;5045471;28;1263;-54
2023/12/25 02:20:22;;;;;;;;;;;;;;;17.38;43.66;100362.81;5066779;28;1159;-55
2023/12/25 02:22:48;;;;;;;;;;;;;;;17.34;43.68;100355.44;5072077;28;1170;-54
2023/12/25 02:25:14;;;;;;;;;;;;;;;18.06;42.26;100355.53;5040129;28;1006;-54
2023/12/25 02:27:40;;;;;;;;;;;;;;;17.28;43.54;100352.75;5079902;28;1215;-53
2023/12/25 02:30:06;;;;;;;;;;;;;;;17.02;43.71;100357.63;5061827;28;1309;-54
2023/12/25 02:32:31;;;;;;;;;;;;;;;17.95;42.75;100365.03;5071429;28;1909;-54
2023/12/25 02:34:57;;;;;;;;;;;;;;;17.35;43.60;100373.56;5061300;28;1064;-54
2023/12/25 02:37:23;;;;;;;;;;;;;;;17.01;43.76;100371.66;5079728;28;1035;-54
2023/12/25 02:39:48;;;;;;;;;;;;;;;18.30;41.97;100377.53;5079394;28;1106;-54
2023/12/25 02:42:14;;;;;;;;;;;;;;;17.24;43.72;100365.41;5071925;28;1117;-54
2023/12/25 02:44:39;;;;;;;;;;;;;;;16.92;44.25;100371.44;5072545;28;1202;-52
2023/12/25 02:47:05;;;;;;;;;;;;;;;18.06;42.03;100377.56;5067922;28;907;-52
2023/12/25 02:49:31;;;;;;;;;;;;;;;17.12;43.66;100367.72;5079888;28;1118;-54
2023/12/25 02:51:56;;;;;;;;;;;;;;;17.62;43.23;100362.84;5079439;28;1975;-54
2023/12/25 02:54:22;;;;;;;;;;;;;;;17.61;42.92;100358.47;5064704;28;1087;-54
2023/12/25 02:56:47;;;;;;;;;;;;;;;17.30;43.81;100354.38;5067333;28;1143;-52
2023/12/25 02:59:13;;;;;;;;;;;;;;;18.88;40.30;100350.03;5071042;28;1063;-53
2023/12/25 03:01:38;;;;;;;;;;;;;;;17.54;43.06;100348.94;5078714;28;1138;-55
2023/12/25 03:04:04;;;;;;;;;;;;;;;17.14;43.49;100348.19;5060024;28;1691;-55
2023/12/25 03:06:30;;;;;;;;;;;;;;;17.84;42.69;100342.28;5066771;28;1115;-54
2023/12/25 03:08:56;;;;;;;;;;;;;;;17.54;42.88;100344.22;5060799;28;1043;-53
2023/12/25 03:11:22;;;;;;;;;;;;;;;17.24;43.70;100339.88;5077623;28;1975;-50
2023/12/25 03:13:47;;;;;;;;;;;;;;;18.54;40.87;100329.03;5078448;28;1162;-52
2023/12/25 03:16:13;;;;;;;;;;;;;;;17.52;43.09;100337.41;5078797;28;1032;-52
2023/12/25 03:18:39;;;;;;;;;;;;;;;17.07;43.48;100324.63;5065761;28;1127;-51
2023/12/25 03:21:04;;;;;;;;;;;;;;;18.16;41.92;100337.25;5078856;28;1102;-54
2023/12/25 03:23:30;;;;;;;;;;;;;;;17.28;43.55;100328.00;5069765;28;1094;-52
2023/12/25 03:25:56;;;;;;;;;;;;;;;17.24;43.79;100332.44;5078566;28;1181;-53
2023/12/25 03:28:23;;;;;;;;;;;;;;;17.73;42.53;100324.25;5078808;28;1056;-51
2023/12/25 03:30:49;;;;;;;;;;;;;;;17.07;43.74;100324.63;5060911;28;1906;-53
2023/12/25 03:33:15;;;;;;;;;;;;;;;18.35;41.57;100329.84;5077189;28;1066;-51
2023/12/25 03:35:40;;;;;;;;;;;;;;;17.49;43.15;100336.06;5066949;28;841;-53
2023/12/25 03:38:07;;;;;;;;;;;;;;;17.71;43.11;100332.81;5064792;28;1098;-55
2023/12/25 03:40:33;;;;;;;;;;;;;;;18.37;41.33;100327.63;5078619;28;1090;-55
2023/12/25 03:43:00;;;;;;;;;;;;;;;17.45;43.25;100330.31;5047456;28;1151;-53
2023/12/25 03:45:25;;;;;;;;;;;;;;;17.96;42.42;100336.38;5074702;28;1047;-54
2023/12/25 03:47:51;;;;;;;;;;;;;;;17.59;42.95;100319.44;5048149;28;2450;-52
2023/12/25 03:50:17;;;;;;;;;;;;;;;18.18;41.87;100313.81;5073579;28;1883;-54
2023/12/25 03:52:42;;;;;;;;;;;;;;;18.86;40.37;100316.41;5059434;28;1976;-57
2023/12/25 03:55:11;;;;;;;;;;;;;;;17.71;42.78;100310.81;5043150;28;1869;-56
2023/12/25 03:57:36;;;;;;;;;;;;;;;17.26;43.27;100307.41;5075184;28;1967;-55
2023/12/25 04:00:03;;;;;;;;;;;;;;;16.99;43.51;100317.00;5067474;28;2247;-55
2023/12/25 04:02:39;;;;;;;;;;;;;;;18.17;41.75;100317.69;5069648;28;1973;-54
2023/12/25 04:05:06;;;;;;;;;;;;;;;17.22;43.45;100320.94;5068788;28;1366;-55
2023/12/25 04:07:33;;;;;;;;;;;;;;;18.79;40.67;100320.38;5053718;28;1264;-52
2023/12/25 04:09:59;;;;;;;;;;;;;;;18.06;42.09;100328.03;5049467;28;1310;-55
2023/12/25 04:12:24;;;;;;;;;;;;;;;17.42;43.15;100327.34;5041580;28;1938;-53
2023/12/25 04:14:50;;;;;;;;;;;;;;;18.45;41.45;100326.97;5051658;28;1126;-53
2023/12/25 04:17:16;;;;;;;;;;;;;;;17.68;42.98;100327.06;5040738;28;1636;-53
2023/12/25 04:19:42;;;;;;;;;;;;;;;17.22;43.61;100337.41;5068007;28;1117;-55
2023/12/25 04:22:07;;;;;;;;;;;;;;;17.68;43.06;100336.13;5053533;28;1435;-55
2023/12/25 04:24:33;;;;;;;;;;;;;;;17.73;42.70;100327.81;5048715;28;2061;-55
2023/12/25 04:26:59;;;;;;;;;;;;;;;17.20;43.35;100327.81;5058699;28;1214;-52
2023/12/25 04:29:24;;;;;;;;;;;;;;;17.52;43.24;100318.16;5045888;28;2059;-56
2023/12/25 04:31:50;;;;;;;;;;;;;;;17.73;42.90;100314.06;5067713;28;2619;-53
2023/12/25 04:34:17;;;;;;;;;;;;;;;17.13;43.71;100311.66;5052457;28;1131;-54
2023/12/25 04:36:43;;;;;;;;;;;;;;;18.59;41.27;100306.91;5045792;28;1306;-56
2023/12/25 04:39:09;;;;;;;;;;;;;;;17.54;43.26;100310.44;5039217;28;1126;-54
2023/12/25 04:41:34;;;;;;;;;;;;;;;17.21;43.83;100299.25;5054662;28;1296;-54
2023/12/25 04:44:00;;;;;;;;;;;;;;;18.42;41.47;100299.19;5054886;28;1220;-54
2023/12/25 04:46:26;;;;;;;;;;;;;;;17.41;43.36;100298.22;5076521;28;1091;-54
2023/12/25 04:48:51;;;;;;;;;;;;;;;17.08;43.81;100307.03;5044961;28;1042;-54
2023/12/25 04:51:17;;;;;;;;;;;;;;;18.68;40.96;100298.78;5059206;28;1913;-58
2023/12/25 04:53:43;;;;;;;;;;;;;;;17.78;42.62;100302.19;5052425;28;1543;-57
2023/12/25 04:56:09;;;;;;;;;;;;;;;17.22;43.87;100289.88;5052074;28;1230;-57
2023/12/25 04:58:35;;;;;;;;;;;;;;;17.65;43.07;100297.41;5075345;28;1267;-58
2023/12/25 05:01:00;;;;;;;;;;;;;;;17.51;43.17;100300.03;5054883;28;2352;-57
2023/12/25 05:03:26;;;;;;;;;;;;;;;17.07;44.03;100308.16;5058580;28;1124;-56
2023/12/25 05:05:51;;;;;;;;;;;;;;;18.24;42.12;100309.06;5076621;28;1040;-56
2023/12/25 05:08:18;;;;;;;;;;;;;;;17.32;43.73;100313.69;5070138;28;1027;-56
2023/12/25 05:10:44;;;;;;;;;;;;;;;18.07;42.14;100302.13;5056507;28;1906;-53
2023/12/25 05:13:09;;;;;;;;;;;;;;;18.13;41.78;100300.97;5041316;28;1282;-52
2023/12/25 05:15:37;;;;;;;;;;;;;;;18.66;40.82;100312.88;5051760;28;1056;-53
2023/12/25 05:18:02;;;;;;;;;;;;;;;18.39;41.18;100314.38;5057773;28;1135;-53
2023/12/25 05:20:28;;;;;;;;;;;;;;;16.34;46.44;100317.97;5058093;28;1200;-53
2023/12/25 05:22:53;;;;;;;;;;;;;;;18.98;40.26;100322.31;5062579;28;1186;-54
2023/12/25 05:25:19;;;;;;;;;;;;;;;18.21;41.80;100307.72;5071634;28;869;-54
2023/12/25 05:27:45;;;;;;;;;;;;;;;17.39;43.28;100315.00;5075227;28;1100;-53
2023/12/25 05:30:10;;;;;;;;;;;;;;;17.28;43.60;100313.47;5062250;28;1009;-52
2023/12/25 05:32:36;;;;;;;;;;;;;;;17.04;44.11;100316.13;5064446;28;2574;-54
2023/12/25 05:35:04;;;;;;;;;;;;;;;16.81;44.36;100312.19;5069369;28;989;-53
2023/12/25 05:37:29;;;;;;;;;;;;;;;16.62;44.84;100317.53;5064531;28;1116;-53
2023/12/25 05:39:55;;;;;;;;;;;;;;;16.52;44.83;100312.91;5058362;28;1051;-52
2023/12/25 05:42:21;;;;;;;;;;;;;;;16.39;45.27;100306.94;5067262;28;1412;-54
2023/12/25 05:44:46;;;;;;;;;;;;;;;16.39;44.86;100297.91;5071103;28;1028;-54
2023/12/25 05:47:13;;;;;;;;;;;;;;;16.31;44.68;100295.75;5075594;28;992;-52
2023/12/25 05:49:38;;;;;;;;;;;;;;;16.17;45.15;100303.78;5075481;28;901;-53
2023/12/25 05:52:04;;;;;;;;;;;;;;;15.99;45.28;100308.81;5075612;28;1984;-52
2023/12/25 05:54:30;;;;;;;;;;;;;;;15.79;45.89;100300.66;5075462;28;991;-51
2023/12/25 05:56:55;;;;;;;;;;;;;;;15.69;46.11;100296.81;5066422;28;1134;-51
2023/12/25 05:59:21;;;;;;;;;;;;;;;17.14;43.00;100305.06;5070912;28;992;-53
2023/12/25 06:01:46;;;;;;;;;;;;;;;16.67;43.89;100299.09;5061140;28;2510;-53
2023/12/25 06:04:12;;;;;;;;;;;;;;;16.17;45.31;100306.53;5071073;28;1183;-52
2023/12/25 06:06:37;;;;;;;;;;;;;;;15.88;46.03;100315.47;5075553;28;1245;-52
2023/12/25 06:09:03;;;;;;;;;;;;;;;15.70;46.33;100314.13;5064874;28;1776;-50
2023/12/25 06:11:29;;;;;;;;;;;;;;;16.55;44.19;100296.72;5056178;28;1976;-50
2023/12/25 06:13:54;;;;;;;;;;;;;;;17.18;42.56;100306.13;5054555;28;892;-49
2023/12/25 06:16:20;;;;;;;;;;;;;;;16.38;44.44;100301.75;5066760;28;1034;-49
2023/12/25 06:18:45;;;;;;;;;;;;;;;16.05;45.57;100301.41;5075012;28;983;-49
2023/12/25 06:21:13;;;;;;;;;;;;;;;15.78;45.86;100299.84;5075602;28;1078;-50
2023/12/25 06:23:39;;;;;;;;;;;;;;;16.92;43.60;100309.09;5075365;28;1020;-48
2023/12/25 06:26:04;;;;;;;;;;;;;;;17.22;42.86;100314.59;5066973;28;871;-47
2023/12/25 06:28:30;;;;;;;;;;;;;;;16.39;44.84;100317.13;5061186;28;1039;-50
2023/12/25 06:30:55;;;;;;;;;;;;;;;16.02;45.52;100305.53;5065138;28;2483;-49
2023/12/25 06:33:21;;;;;;;;;;;;;;;15.84;46.17;100311.63;5070006;28;1154;-48
2023/12/25 06:35:46;;;;;;;;;;;;;;;17.26;42.97;100313.75;5067335;28;1011;-48
2023/12/25 06:38:12;;;;;;;;;;;;;;;17.02;43.22;100307.38;5059784;28;886;-46
2023/12/25 06:40:37;;;;;;;;;;;;;;;16.29;45.14;100308.97;5074996;28;1039;-47
2023/12/25 06:43:03;;;;;;;;;;;;;;;15.96;46.11;100305.81;5074712;28;1139;-48
2023/12/25 06:45:29;;;;;;;;;;;;;;;15.78;46.08;100301.75;5075402;28;1007;-50
2023/12/25 06:47:54;;;;;;;;;;;;;;;16.73;44.16;100316.34;5061266;28;1035;-47
2023/12/25 06:50:20;;;;;;;;;;;;;;;17.36;42.39;100315.59;5066256;28;1141;-46
2023/12/25 06:52:46;;;;;;;;;;;;;;;16.54;44.07;100317.03;5078123;28;1988;-45
2023/12/25 06:55:12;;;;;;;;;;;;;;;16.08;45.12;100320.84;5078606;28;1008;-46
2023/12/25 06:57:37;;;;;;;;;;;;;;;15.81;46.01;100315.75;5078538;28;1004;-48
2023/12/25 07:00:03;;;;;;;;;;;;;;;15.91;45.49;100314.88;5064902;28;1163;-50
2023/12/25 07:02:29;;;;;;;;;;;;;;;17.39;42.17;100323.25;5072102;28;1902;-51
2023/12/25 07:04:55;;;;;;;;;;;;;;;16.63;43.73;100328.22;5078606;28;992;-47
2023/12/25 07:07:20;;;;;;;;;;;;;;;16.05;45.39;100331.56;5065131;28;991;-48
2023/12/25 07:09:46;;;;;;;;;;;;;;;15.85;45.87;100326.97;5078444;28;999;-49
2023/12/25 07:12:11;;;;;;;;;;;;;;;17.03;42.69;100334.53;5065110;28;1935;-47
2023/12/25 07:14:38;;;;;;;;;;;;;;;17.16;41.88;100327.56;5065912;28;1202;-49
2023/12/25 07:17:07;;;;;;;;;;;;;;;16.46;43.48;100344.25;5078005;28;1039;-49
2023/12/25 07:19:33;;;;;;;;;;;;;;;16.21;43.94;100343.28;5065091;28;1094;-46
2023/12/25 07:21:59;;;;;;;;;;;;;;;15.98;44.12;100351.06;5078582;28;1028;-48
2023/12/25 07:24:24;;;;;;;;;;;;;;;16.66;42.76;100362.50;5075947;28;1071;-47
2023/12/25 07:26:50;;;;;;;;;;;;;;;17.62;40.49;100362.03;5065392;28;1036;-49
2023/12/25 07:29:16;;;;;;;;;;;;;;;16.62;42.57;100370.53;5077674;28;1098;-49
2023/12/25 07:31:42;;;;;;;;;;;;;;;16.20;43.37;100361.66;5059783;28;2333;-46
2023/12/25 07:34:07;;;;;;;;;;;;;;;15.99;43.75;100360.94;5078217;28;1015;-49
2023/12/25 07:36:33;;;;;;;;;;;;;;;15.98;44.00;100366.69;5062976;28;1326;-50
2023/12/25 07:38:58;;;;;;;;;;;;;;;17.44;41.13;100356.16;5078164;28;1051;-47
2023/12/25 07:41:24;;;;;;;;;;;;;;;16.82;42.49;100372.31;5077714;28;1034;-45
2023/12/25 07:43:49;;;;;;;;;;;;;;;16.27;43.66;100366.03;5077634;28;996;-48
2023/12/25 07:46:15;;;;;;;;;;;;;;;15.90;44.72;100359.84;5064474;28;1143;-48
2023/12/25 07:48:41;;;;;;;;;;;;;;;16.23;44.33;100366.59;5074390;28;1149;-48
2023/12/25 07:51:06;;;;;;;;;;;;;;;17.53;41.36;100370.09;5071790;28;1901;-50
2023/12/25 07:53:32;;;;;;;;;;;;;;;16.60;43.20;100367.22;5077885;28;1213;-47
2023/12/25 07:55:57;;;;;;;;;;;;;;;16.15;44.23;100366.34;5070964;28;1344;-50
2023/12/25 07:58:23;;;;;;;;;;;;;;;15.87;44.84;100369.44;5077412;28;1285;-49
2023/12/25 08:00:49;;;;;;;;;;;;;;;17.14;42.21;100381.16;5071189;28;2328;-50
2023/12/25 08:03:15;;;;;;;;;;;;;;;16.97;42.28;100371.41;5066829;28;1087;-46
2023/12/25 08:05:40;;;;;;;;;;;;;;;16.32;44.22;100374.22;5075009;28;1122;-50
2023/12/25 08:08:06;;;;;;;;;;;;;;;16.02;44.65;100359.53;5066252;28;1132;-46
2023/12/25 08:10:32;;;;;;;;;;;;;;;15.99;45.19;100365.56;5076941;28;1917;-48
2023/12/25 08:12:58;;;;;;;;;;;;;;;17.47;41.86;100370.44;5073318;28;1018;-49
2023/12/25 08:15:25;;;;;;;;;;;;;;;16.80;43.36;100373.69;5068062;28;1182;-50
2023/12/25 08:17:51;;;;;;;;;;;;;;;16.14;44.61;100367.44;5059232;28;1205;-48
2023/12/25 08:20:17;;;;;;;;;;;;;;;15.94;45.11;100363.69;5068897;28;1089;-50
2023/12/25 08:22:42;;;;;;;;;;;;;;;16.00;45.45;100369.97;5060049;28;1067;-50
2023/12/25 08:25:08;;;;;;;;;;;;;;;17.59;41.59;100362.63;5063116;28;1083;-45
2023/12/25 08:27:33;;;;;;;;;;;;;;;16.84;43.05;100372.00;5065475;28;1050;-48
2023/12/25 08:29:59;;;;;;;;;;;;;;;16.29;44.23;100378.34;5074304;28;1050;-50
2023/12/25 08:32:24;;;;;;;;;;;;;;;16.06;44.86;100366.09;5071174;28;2620;-50
2023/12/25 08:34:50;;;;;;;;;;;;;;;15.79;45.51;100360.97;5069531;28;1115;-53
2023/12/25 08:37:15;;;;;;;;;;;;;;;17.33;42.34;100346.38;5072474;28;1011;-55
2023/12/25 08:39:41;;;;;;;;;;;;;;;16.83;43.32;100343.75;5070040;28;1264;-55
2023/12/25 08:42:07;;;;;;;;;;;;;;;16.17;44.82;100333.97;5076995;28;1027;-57
2023/12/25 08:44:32;;;;;;;;;;;;;;;15.92;45.50;100354.91;5076583;28;1043;-55
2023/12/25 08:46:58;;;;;;;;;;;;;;;15.84;45.73;100353.56;5063268;28;1075;-55
2023/12/25 08:49:24;;;;;;;;;;;;;;;17.37;42.29;100333.69;5070746;28;1091;-56
2023/12/25 08:51:50;;;;;;;;;;;;;;;16.64;43.64;100329.84;5076202;28;1893;-51
2023/12/25 08:54:16;;;;;;;;;;;;;;;16.13;44.97;100327.41;5075250;28;1472;-53
2023/12/25 08:56:41;;;;;;;;;;;;;;;15.82;45.79;100316.56;5076609;28;1287;-51
2023/12/25 08:59:07;;;;;;;;;;;;;;;16.19;44.99;100304.34;5063664;28;937;-52
2023/12/25 09:01:33;;;;;;;;;;;;;;;17.59;42.00;100307.66;5062521;28;1969;-55
2023/12/25 09:03:58;;;;;;;;;;;;;;;16.68;43.92;100300.75;5076315;28;1012;-55
2023/12/25 09:06:24;;;;;;;;;;;;;;;16.15;45.05;100304.06;5076180;28;1115;-55
2023/12/25 09:08:51;;;;;;;;;;;;;;;15.89;45.63;100300.63;5062559;28;1052;-54
2023/12/25 09:11:17;;;;;;;;;;;;;;;15.85;46.08;100302.28;5069422;28;1959;-54
2023/12/25 09:13:43;;;;;;;;;;;;;;;17.33;42.50;100299.66;5056495;28;1146;-53
2023/12/25 09:16:08;;;;;;;;;;;;;;;16.69;43.84;100294.16;5076287;28;1023;-54
2023/12/25 09:18:34;;;;;;;;;;;;;;;16.19;44.89;100296.13;5075805;28;1015;-54
2023/12/25 09:21:00;;;;;;;;;;;;;;;15.95;45.77;100295.94;5055868;28;1004;-52
2023/12/25 09:23:25;;;;;;;;;;;;;;;16.80;43.82;100297.63;5051929;28;1118;-53
2023/12/25 09:25:51;;;;;;;;;;;;;;;17.15;42.73;100289.38;5069008;28;1075;-55
2023/12/25 09:28:16;;;;;;;;;;;;;;;16.40;44.87;100288.59;5069005;28;1178;-55
2023/12/25 09:30:43;;;;;;;;;;;;;;;15.98;45.55;100290.72;5075677;28;1976;-54
2023/12/25 09:33:08;;;;;;;;;;;;;;;16.20;45.32;100284.03;5056251;28;2829;-53
2023/12/25 09:35:34;;;;;;;;;;;;;;;17.58;42.30;100281.25;5068874;28;1254;-53
2023/12/25 09:37:59;;;;;;;;;;;;;;;16.71;44.01;100282.88;5069436;28;1257;-54
2023/12/25 09:40:25;;;;;;;;;;;;;;;16.23;45.04;100278.81;5069927;28;1051;-54
2023/12/25 09:42:50;;;;;;;;;;;;;;;15.91;46.04;100265.53;5068226;28;1189;-54
2023/12/25 09:45:16;;;;;;;;;;;;;;;15.74;46.18;100266.66;5075866;28;1099;-54
2023/12/25 09:47:42;;;;;;;;;;;;;;;16.70;44.30;100276.53;5075633;28;991;-53
2023/12/25 09:50:08;;;;;;;;;;;;;;;17.68;41.79;100264.63;5062887;28;1114;-51
2023/12/25 09:52:33;;;;;;;;;;;;;;;16.65;44.15;100267.53;5075811;28;1975;-51
2023/12/25 09:54:59;;;;;;;;;;;;;;;16.22;45.37;100257.13;5057146;28;1112;-54
2023/12/25 09:57:25;;;;;;;;;;;;;;;16.03;45.73;100260.53;5075590;28;1056;-54
2023/12/25 09:59:52;;;;;;;;;;;;;;;15.79;46.39;100259.53;5056537;28;1175;-54
2023/12/25 10:02:17;;;;;;;;;;;;;;;16.95;43.70;100252.75;5068181;28;1793;-54
2023/12/25 10:04:43;;;;;;;;;;;;;;;17.13;42.95;100255.91;5057370;28;1028;-56
2023/12/25 10:07:09;;;;;;;;;;;;;;;16.33;44.97;100266.13;5054764;28;1210;-56
2023/12/25 10:09:34;;;;;;;;;;;;;;;16.01;45.72;100254.50;5057054;28;1447;-56
2023/12/25 10:12:00;;;;;;;;;;;;;;;16.18;45.64;100261.56;5066825;28;1964;-55
2023/12/25 10:14:25;;;;;;;;;;;;;;;17.58;42.23;100253.75;5064453;28;1115;-58
2023/12/25 10:16:56;;;;;;;;;;;;;;;16.76;43.89;100252.66;5075496;28;1008;-57
2023/12/25 10:19:21;;;;;;;;;;;;;;;16.33;45.25;100242.25;5075333;28;1091;-55
2023/12/25 10:21:47;;;;;;;;;;;;;;;15.99;45.88;100229.31;5073049;28;1008;-62
2023/12/25 10:24:13;;;;;;;;;;;;;;;15.81;46.27;100224.44;5066389;28;980;-54
2023/12/25 10:26:38;;;;;;;;;;;;;;;16.42;45.13;100232.31;5065511;28;1082;-56
2023/12/25 10:29:08;;;;;;;;;;;;;;;17.63;42.31;100228.97;5070807;28;1033;-54
2023/12/25 10:31:35;;;;;;;;;;;;;;;16.70;44.31;100227.13;5070114;28;2505;-53
2023/12/25 10:34:01;;;;;;;;;;;;;;;16.26;45.28;100200.59;5076800;28;1089;-55
2023/12/25 10:36:26;;;;;;;;;;;;;;;16.02;45.83;100219.66;5072134;28;1028;-53
2023/12/25 10:38:52;;;;;;;;;;;;;;;15.79;46.52;100212.91;5079586;28;849;-54
2023/12/25 10:41:18;;;;;;;;;;;;;;;16.84;44.17;100201.75;5075719;28;1339;-54
2023/12/25 10:43:49;;;;;;;;;;;;;;;17.20;42.85;100209.69;5069317;28;1063;-54
2023/12/25 10:46:15;;;;;;;;;;;;;;;16.42;44.76;100204.03;5073498;28;1122;-54
2023/12/25 10:48:41;;;;;;;;;;;;;;;16.12;45.63;100202.31;5078528;28;1055;-53
2023/12/25 10:51:06;;;;;;;;;;;;;;;15.84;46.21;100204.72;5047794;28;1902;-54
2023/12/25 10:53:32;;;;;;;;;;;;;;;15.68;46.77;100209.41;5078815;28;960;-53
2023/12/25 10:55:58;;;;;;;;;;;;;;;17.16;43.34;100206.69;5078947;28;1238;-54
2023/12/25 10:58:23;;;;;;;;;;;;;;;16.92;43.46;100207.47;5068877;28;1449;-55
2023/12/25 11:00:56;;;;;;;;;;;;;;;16.32;45.19;100195.91;5070122;28;1827;-53
2023/12/25 11:03:22;;;;;;;;;;;;;;;16.02;45.73;100197.72;5052331;28;1126;-47
2023/12/25 11:05:47;;;;;;;;;;;;;;;16.24;45.53;100202.78;5068778;28;1499;-59
2023/12/25 11:08:13;;;;;;;;;;;;;;;17.44;42.73;100195.94;5059937;28;1184;-58
2023/12/25 11:10:39;;;;;;;;;;;;;;;16.50;44.72;100202.63;5069889;28;1988;-52
2023/12/25 11:13:06;;;;;;;;;;;;;;;16.13;45.72;100206.72;5054084;28;1048;-56
2023/12/25 11:15:32;;;;;;;;;;;;;;;15.88;46.09;100205.78;5071862;28;899;-58
2023/12/25 11:17:58;;;;;;;;;;;;;;;15.76;46.72;100197.03;5077693;28;1087;-54
2023/12/25 11:20:23;;;;;;;;;;;;;;;17.27;43.14;100199.16;5060812;28;1047;-61
2023/12/25 11:22:49;;;;;;;;;;;;;;;16.85;43.71;100200.66;5075829;28;1055;-56
2023/12/25 11:25:15;;;;;;;;;;;;;;;16.24;45.26;100200.06;5067106;28;996;-55
2023/12/25 11:27:42;;;;;;;;;;;;;;;15.94;46.21;100196.41;5078083;28;1071;-53
2023/12/25 11:30:08;;;;;;;;;;;;;;;15.81;46.27;100199.75;5068922;28;1174;-54
2023/12/25 11:32:37;;;;;;;;;;;;;;;16.98;43.93;100201.94;5067678;28;1968;-55
2023/12/25 11:35:03;;;;;;;;;;;;;;;17.20;43.12;100191.25;5067283;28;1375;-52
2023/12/25 11:37:29;;;;;;;;;;;;;;;16.44;44.83;100201.84;5069665;28;1178;-57
2023/12/25 11:40:02;;;;;;;;;;;;;;;16.08;45.66;100189.19;5040331;28;1154;-54
2023/12/25 11:42:29;;;;;;;;;;;;;;;15.84;46.31;100200.03;5067929;28;1119;-55
2023/12/25 11:45:04;;;;;;;;;;;;;;;15.67;46.73;100200.38;5056908;28;1079;-54
2023/12/25 11:47:45;;;;;;;;;;;;;;;17.15;43.33;100195.97;5060116;28;1093;-54
2023/12/25 11:50:11;;;;;;;;;;;;;;;16.54;44.67;100203.69;5077607;28;1290;-54
2023/12/25 11:52:42;;;;;;;;;;;;;;;16.07;45.63;100212.25;5059152;28;1913;-56
2023/12/25 11:55:08;;;;;;;;;;;;;;;15.79;46.60;100201.97;5077857;28;1104;-57
2023/12/25 11:57:34;;;;;;;;;;;;;;;15.92;46.12;100195.88;5072539;28;1044;-55
2023/12/25 12:00:00;;;;;;;;;;;;;;;17.39;42.78;100194.06;5059419;28;1214;-56
2023/12/25 12:02:26;;;;;;;;;;;;;;;16.78;44.11;100198.25;5058424;28;2457;-57
2023/12/25 12:04:51;;;;;;;;;;;;;;;16.21;45.53;100206.13;5077444;28;1147;-55
2023/12/25 12:07:17;;;;;;;;;;;;;;;15.95;46.09;100198.06;5076851;28;1067;-56
2023/12/25 12:09:43;;;;;;;;;;;;;;;16.17;45.46;100202.31;5063438;28;1244;-56
2023/12/25 12:12:08;;;;;;;;;;;;;;;17.51;42.76;100198.31;5047090;28;1906;-57
2023/12/25 12:14:36;;;;;;;;;;;;;;;16.56;44.66;100195.97;5059156;28;1165;-55
2023/12/25 12:17:01;;;;;;;;;;;;;;;16.19;45.41;100189.13;5077635;28;1107;-54
2023/12/25 12:19:27;;;;;;;;;;;;;;;15.97;46.03;100203.25;5076672;28;1096;-54
2023/12/25 12:21:53;;;;;;;;;;;;;;;15.77;46.38;100198.66;5064648;28;1092;-54
2023/12/25 12:24:22;;;;;;;;;;;;;;;16.02;46.04;100205.94;5058586;28;1114;-55
2023/12/25 12:26:48;;;;;;;;;;;;;;;17.48;42.46;100207.97;5076747;28;1131;-55
2023/12/25 12:29:14;;;;;;;;;;;;;;;16.86;43.94;100218.78;5076578;28;1027;-55
2023/12/25 12:31:39;;;;;;;;;;;;;;;16.20;45.36;100216.28;5076723;28;2693;-54
2023/12/25 12:34:05;;;;;;;;;;;;;;;16.03;46.00;100227.63;5045085;28;1016;-55
2023/12/25 12:36:31;;;;;;;;;;;;;;;15.83;46.20;100227.75;5063934;28;1082;-54
2023/12/25 12:38:56;;;;;;;;;;;;;;;16.81;44.11;100219.63;5064087;28;1118;-52
2023/12/25 12:41:22;;;;;;;;;;;;;;;17.34;42.88;100213.34;5075888;28;1056;-55